Time;durP1;ratioP1;P1;durP2;ratioP2;P2;SDS_P1;SDS_P2;PMS_P1;PMS_P2;Temp;Humidity;BMP_temperature;BMP_pressure;BME280_temperature;BME280_humidity;BME280_pressure;Samples;Min_cycle;Max_cycle;Signal;HPM_P1;HPM_P2
2023/05/13 00:01:10;;;;;;;6.38;2.63;;;;;;;8.52;100.00;102224.13;5042560;28;20486;-92
2023/05/13 00:03:37;;;;;;;8.00;3.55;;;;;;;9.32;100.00;102350.78;5075892;28;20049;-94
2023/05/13 00:06:04;;;;;;;9.65;3.42;;;;;;;9.11;100.00;102276.00;5044138;28;20080;-93
2023/05/13 00:08:33;;;;;;;8.90;3.72;;;;;;;9.10;100.00;102259.47;5043431;28;20053;-93
2023/05/13 00:11:00;;;;;;;8.63;3.63;;;;;;;9.59;100.00;102322.69;5038855;28;20056;-92
2023/05/13 00:13:27;;;;;;;8.00;3.30;;;;;;;9.28;100.00;102242.78;5039721;28;20132;-93
2023/05/13 00:15:54;;;;;;;9.88;4.43;;;;;;;9.80;100.00;102334.72;5075084;28;20399;-93
2023/05/13 00:18:20;;;;;;;8.50;3.42;;;;;;;9.87;100.00;102333.78;5044118;28;20075;-92
2023/05/13 00:20:47;;;;;;;8.45;3.40;;;;;;;10.03;100.00;102340.59;5051176;28;20434;-92
2023/05/13 00:23:14;;;;;;;10.25;4.45;;;;;;;10.02;100.00;102338.00;5072310;28;20099;-93
2023/05/13 00:25:43;;;;;;;10.07;4.97;;;;;;;9.42;100.00;102231.31;5043955;28;20071;-92
2023/05/13 00:28:12;;;;;;;11.65;5.32;;;;;;;9.47;100.00;102219.97;5040448;28;20056;-91
2023/05/13 00:30:42;;;;;;;10.38;5.22;;;;;;;9.65;100.00;102234.59;5057803;28;20049;-93
2023/05/13 00:33:09;;;;;;;10.88;4.80;;;;;;;9.88;100.00;102264.91;5039635;28;20098;-92
2023/05/13 00:35:36;;;;;;;11.45;5.18;;;;;;;9.96;100.00;102275.28;5040394;28;20057;-91
2023/05/13 00:38:03;;;;;;;9.07;4.07;;;;;;;9.94;100.00;102254.34;5058312;28;20045;-92
2023/05/13 00:40:30;;;;;;;12.73;5.30;;;;;;;9.89;100.00;102253.53;5041466;28;20452;-93
2023/05/13 00:42:56;;;;;;;11.65;5.72;;;;;;;9.83;100.00;102235.28;5040247;28;20059;-93
2023/05/13 00:45:23;;;;;;;11.07;5.43;;;;;;;9.91;100.00;102225.59;5040400;28;20044;-92
2023/05/13 00:47:50;;;;;;;11.70;5.25;;;;;;;10.21;100.00;102268.00;5040878;28;20140;-93
2023/05/13 00:50:17;;;;;;;13.43;6.65;;;;;;;10.35;100.00;102294.94;5040372;28;20131;-91
2023/05/13 00:52:45;;;;;;;12.48;6.13;;;;;;;10.48;100.00;102295.63;5040508;28;20048;-92
2023/05/13 00:55:12;;;;;;;10.70;5.22;;;;;;;10.24;100.00;102233.97;5040954;28;20402;-92
2023/05/13 00:57:39;;;;;;;11.07;5.05;;;;;;;10.45;100.00;102269.50;5044243;28;20493;-93
2023/05/13 01:00:09;;;;;;;13.10;6.38;;;;;;;10.43;100.00;102303.56;5050028;28;20081;-92
2023/05/13 01:02:54;;;;;;;11.88;6.05;;;;;;;10.54;100.00;102294.72;5042301;28;20057;-92
2023/05/13 01:05:32;;;;;;;13.15;6.90;;;;;;;10.54;100.00;102265.91;5046326;28;20127;-93
2023/05/13 01:08:19;;;;;;;11.88;6.32;;;;;;;10.43;100.00;102268.66;5042266;28;20054;-92
2023/05/13 01:10:50;;;;;;;12.77;6.43;;;;;;;10.21;100.00;102218.28;5049298;28;20057;-91
2023/05/13 01:13:22;;;;;;;10.25;4.60;;;;;;;10.88;100.00;102296.88;5073687;28;20083;-92
2023/05/13 01:16:12;;;;;;;10.38;4.72;;;;;;;10.85;100.00;102289.91;5038050;28;20057;-91
2023/05/13 01:18:52;;;;;;;11.48;6.05;;;;;;;10.53;100.00;102244.06;5037770;28;20057;-92
2023/05/13 01:21:24;;;;;;;11.52;5.15;;;;;;;10.44;100.00;102244.19;5034894;28;20127;-93
2023/05/13 01:23:51;;;;;;;12.38;6.22;;;;;;;10.73;100.00;102284.84;5063820;28;20049;-92
2023/05/13 01:26:19;;;;;;;12.68;7.28;;;;;;;10.58;100.00;102278.06;5040128;28;20113;-93
2023/05/13 01:28:47;;;;;;;12.40;6.22;;;;;;;10.33;100.00;102225.16;5058022;28;20056;-90
2023/05/13 01:31:14;;;;;;;12.00;6.38;;;;;;;10.30;100.00;102231.25;5040160;28;20049;-91
2023/05/13 01:33:42;;;;;;;12.00;6.03;;;;;;;10.43;100.00;102253.81;5038985;28;20122;-92
2023/05/13 01:36:09;;;;;;;12.13;6.35;;;;;;;10.27;100.00;102233.94;5039472;28;20068;-93
2023/05/13 01:38:37;;;;;;;11.38;6.18;;;;;;;10.57;100.00;102260.63;5072640;28;20052;-93
2023/05/13 01:41:04;;;;;;;14.05;6.32;;;;;;;10.32;100.00;102187.63;5039950;28;20057;-93
2023/05/13 01:43:31;;;;;;;11.70;6.47;;;;;;;10.45;100.00;102248.56;5072319;28;20064;-93
2023/05/13 01:45:59;;;;;;;12.40;6.88;;;;;;;9.84;100.00;102171.63;5041365;28;20052;-91
2023/05/13 01:48:26;;;;;;;13.55;8.07;;;;;;;10.19;100.00;102214.81;5041691;28;20080;-93
2023/05/13 01:50:54;;;;;;;11.90;6.43;;;;;;;10.08;100.00;102175.69;5042005;28;20055;-93
2023/05/13 01:53:21;;;;;;;15.38;7.93;;;;;;;10.81;100.00;102288.25;5041356;28;20056;-95
2023/05/13 01:55:48;;;;;;;13.35;6.70;;;;;;;10.77;100.00;102281.31;5040897;28;20152;-94
2023/05/13 01:58:15;;;;;;;11.80;6.30;;;;;;;10.02;100.00;102131.28;5051714;28;20053;-93
2023/05/13 02:00:42;;;;;;;12.85;6.03;;;;;;;10.23;100.00;102178.13;5041175;28;20426;-91
2023/05/13 02:03:09;;;;;;;12.38;6.82;;;;;;;10.19;100.00;102188.66;5041285;28;20045;-94
2023/05/13 02:05:36;;;;;;;12.35;6.72;;;;;;;10.39;100.00;102205.00;5041666;28;20057;-92
2023/05/13 02:08:03;;;;;;;16.70;9.52;;;;;;;10.33;100.00;102238.25;5057779;28;20390;-92
2023/05/13 02:10:30;;;;;;;15.13;7.68;;;;;;;10.47;100.00;102238.06;5051993;28;20140;-93
2023/05/13 02:12:57;;;;;;;14.48;5.82;;;;;;;10.36;100.00;102197.19;5074596;28;20053;-94
2023/05/13 02:15:24;;;;;;;10.88;5.13;;;;;;;10.62;100.00;102222.13;5041206;28;20057;-94
2023/05/13 02:17:51;;;;;;;13.52;6.75;;;;;;;10.21;100.00;102177.25;5041209;28;20045;-94
2023/05/13 02:20:18;;;;;;;11.75;6.15;;;;;;;10.35;100.00;102198.06;5041175;28;20053;-92
2023/05/13 02:22:45;;;;;;;12.55;5.57;;;;;;;10.55;100.00;102204.78;5040373;28;20056;-93
2023/05/13 02:25:13;;;;;;;13.25;7.53;;;;;;;10.86;100.00;102262.00;5040550;28;20057;-93
2023/05/13 02:27:40;;;;;;;15.95;7.88;;;;;;;10.70;100.00;102230.75;5069062;28;20037;-94
2023/05/13 02:30:07;;;;;;;13.57;7.45;;;;;;;10.62;100.00;102246.59;5024581;28;20053;-94
2023/05/13 02:32:34;;;;;;;16.92;8.27;;;;;;;10.55;100.00;102239.72;5042436;28;20048;-94
2023/05/13 02:35:03;;;;;;;12.45;6.32;;;;;;;10.65;100.00;102245.66;5046871;28;20117;-94
2023/05/13 02:37:30;;;;;;;13.45;7.07;;;;;;;10.60;100.00;102252.72;5041224;28;20068;-93
2023/05/13 02:39:57;;;;;;;11.73;5.80;;;;;;;10.70;100.00;102250.84;5041598;28;20075;-95
2023/05/13 02:42:26;;;;;;;17.17;9.35;;;;;;;10.38;100.00;102218.13;5045338;28;20063;-90
2023/05/13 02:44:52;;;;;;;18.90;9.45;;;;;;;10.35;100.00;102223.38;5038936;28;20056;-91
2023/05/13 02:47:19;;;;;;;14.45;7.57;;;;;;;10.49;100.00;102244.16;5039531;28;20044;-91
2023/05/13 02:49:46;;;;;;;13.80;7.22;;;;;;;10.55;100.00;102246.69;5054121;28;20055;-90
2023/05/13 02:52:13;;;;;;;12.93;6.88;;;;;;;10.72;100.00;102260.41;5033474;28;20045;-91
2023/05/13 02:54:39;;;;;;;15.27;8.00;;;;;;;10.34;100.00;102219.91;5050568;28;20049;-90
2023/05/13 02:57:06;;;;;;;13.80;7.18;;;;;;;10.54;100.00;102245.81;5041551;28;20049;-90
2023/05/13 02:59:33;;;;;;;14.32;6.95;;;;;;;10.43;100.00;102216.31;5054537;28;20048;-89
2023/05/13 03:02:00;;;;;;;18.23;8.00;;;;;;;10.39;100.00;102235.53;5035880;28;20052;-89
2023/05/13 03:04:27;;;;;;;15.30;7.25;;;;;;;10.41;100.00;102221.56;5068832;28;20399;-91
2023/05/13 03:06:54;;;;;;;16.05;7.38;;;;;;;10.80;100.00;102263.81;5069617;28;20056;-93
2023/05/13 03:09:21;;;;;;;13.52;7.05;;;;;;;10.76;100.00;102249.00;5041514;28;20045;-93
2023/05/13 03:11:57;;;;;;;11.98;5.88;;;;;;;10.79;100.00;102241.09;5041696;28;20049;-91
2023/05/13 03:14:24;;;;;;;12.02;6.20;;;;;;;10.67;100.00;102212.47;5039845;28;20060;-92
2023/05/13 03:16:51;;;;;;;16.23;8.20;;;;;;;10.75;100.00;102226.31;5074201;28;20060;-93
2023/05/13 03:19:18;;;;;;;14.77;7.82;;;;;;;10.38;100.00;102221.59;5042128;28;20057;-94
2023/05/13 03:21:45;;;;;;;12.45;6.18;;;;;;;10.39;100.00;102235.53;5040484;28;20055;-92
2023/05/13 03:24:12;;;;;;;14.20;7.22;;;;;;;10.54;100.00;102234.47;5073384;28;20056;-93
2023/05/13 03:26:39;;;;;;;11.45;5.53;;;;;;;10.74;100.00;102247.28;5039583;28;20445;-93
2023/05/13 03:29:06;;;;;;;13.48;7.00;;;;;;;10.95;100.00;102275.81;5039400;28;20048;-93
2023/05/13 03:31:33;;;;;;;12.80;6.57;;;;;;;10.75;100.00;102236.81;5073155;28;20117;-92
2023/05/13 03:34:00;;;;;;;11.50;5.97;;;;;;;10.54;100.00;102189.97;5040277;28;20075;-94
2023/05/13 03:36:26;;;;;;;11.68;5.65;;;;;;;10.79;100.00;102228.00;5039468;28;20526;-93
2023/05/13 03:38:53;;;;;;;12.52;5.85;;;;;;;10.70;100.00;102199.31;5039842;28;20047;-92
2023/05/13 03:41:20;;;;;;;14.57;7.43;;;;;;;10.84;100.00;102251.53;5042899;28;20057;-92
2023/05/13 03:43:47;;;;;;;16.08;7.65;;;;;;;10.63;100.00;102208.16;5042377;28;20049;-94
2023/05/13 03:46:14;;;;;;;12.75;6.50;;;;;;;10.74;100.00;102211.47;5047976;28;20107;-93
2023/05/13 03:48:42;;;;;;;15.70;8.48;;;;;;;10.79;100.00;102206.19;5067820;28;20061;-94
2023/05/13 03:51:09;;;;;;;14.65;7.88;;;;;;;10.75;100.00;102225.47;5040815;28;20521;-91
2023/05/13 03:53:37;;;;;;;14.32;7.15;;;;;;;10.59;100.00;102223.06;5053035;28;20049;-94
2023/05/13 03:56:04;;;;;;;13.38;7.07;;;;;;;10.76;100.00;102241.13;5040416;28;20053;-92
2023/05/13 03:58:31;;;;;;;15.50;9.25;;;;;;;10.38;100.00;102208.50;5041062;28;20054;-94
2023/05/13 04:00:58;;;;;;;16.10;8.13;;;;;;;10.55;100.00;102199.53;5040430;28;20049;-93
2023/05/13 04:03:25;;;;;;;13.43;7.68;;;;;;;10.44;100.00;102166.50;5040288;28;20056;-92
2023/05/13 04:05:52;;;;;;;17.00;7.90;;;;;;;10.49;100.00;102194.41;5073507;28;20076;-93
2023/05/13 04:08:19;;;;;;;15.25;7.60;;;;;;;10.39;100.00;102178.81;5073137;28;20045;-94
2023/05/13 04:10:46;;;;;;;16.50;9.38;;;;;;;10.54;100.00;102224.88;5040812;28;20060;-93
2023/05/13 04:13:13;;;;;;;18.35;9.82;;;;;;;10.40;100.00;102180.53;5073340;28;20067;-93
2023/05/13 04:15:40;;;;;;;16.67;8.27;;;;;;;10.63;100.00;102198.53;5072881;28;20041;-93
2023/05/13 04:18:07;;;;;;;14.95;8.27;;;;;;;10.49;100.00;102218.81;5040091;28;20068;-90
2023/05/13 04:20:36;;;;;;;13.50;7.30;;;;;;;10.76;100.00;102243.75;5072605;28;20099;-93
2023/05/13 04:23:03;;;;;;;13.43;6.65;;;;;;;10.62;100.00;102214.28;5038874;28;20049;-95
2023/05/13 04:25:30;;;;;;;14.27;7.50;;;;;;;10.65;100.00;102209.00;5040136;28;20057;-93
2023/05/13 04:27:57;;;;;;;13.43;7.13;;;;;;;10.69;100.00;102217.69;5039840;28;20049;-92
2023/05/13 04:30:24;;;;;;;15.40;8.27;;;;;;;10.41;100.00;102166.56;5040987;28;20052;-94
2023/05/13 04:32:51;;;;;;;16.20;9.57;;;;;;;10.54;100.00;102224.88;5043900;28;20116;-93
2023/05/13 04:35:19;;;;;;;15.90;7.72;;;;;;;10.43;100.00;102188.34;5044169;28;20088;-93
2023/05/13 04:37:46;;;;;;;14.13;7.70;;;;;;;10.47;100.00;102201.41;5044019;28;20497;-94
2023/05/13 04:40:14;;;;;;;13.70;7.35;;;;;;;10.76;100.00;102228.03;5045250;28;20410;-94
2023/05/13 04:42:41;;;;;;;18.77;8.82;;;;;;;10.44;100.00;102205.78;5044267;28;20057;-94
2023/05/13 04:45:10;;;;;;;14.52;8.30;;;;;;;10.68;100.00;102232.53;5044319;28;20519;-92
2023/05/13 04:47:36;;;;;;;12.68;7.65;;;;;;;10.67;100.00;102227.31;5043571;28;20048;-93
2023/05/13 04:50:04;;;;;;;17.33;10.07;;;;;;;10.93;100.00;102277.59;5043293;28;20457;-94
2023/05/13 04:52:31;;;;;;;14.27;8.57;;;;;;;10.85;100.00;102263.72;5043581;28;20057;-94
2023/05/13 04:54:58;;;;;;;14.73;7.50;;;;;;;10.74;100.00;102242.06;5043356;28;20059;-92
2023/05/13 04:57:25;;;;;;;13.30;6.97;;;;;;;10.91;100.00;102262.78;5043094;28;20136;-92
2023/05/13 04:59:52;;;;;;;13.80;7.20;;;;;;;10.61;100.00;102199.47;5042192;28;20056;-94
2023/05/13 05:02:19;;;;;;;12.48;6.28;;;;;;;10.75;100.00;102213.22;5041739;28;20055;-94
2023/05/13 05:04:48;;;;;;;16.05;9.23;;;;;;;10.70;100.00;102222.91;5047778;28;20067;-91
2023/05/13 05:07:15;;;;;;;14.10;7.18;;;;;;;10.81;100.00;102214.88;5041894;28;20068;-94
2023/05/13 05:09:41;;;;;;;14.13;7.07;;;;;;;10.94;100.00;102257.47;5041691;28;20052;-93
2023/05/13 05:12:08;;;;;;;15.25;7.90;;;;;;;10.43;100.00;102222.41;5041568;28;20097;-93
2023/05/13 05:14:36;;;;;;;15.98;8.20;;;;;;;10.88;100.00;102257.59;5040552;28;20407;-93
2023/05/13 05:17:03;;;;;;;13.70;6.97;;;;;;;10.44;100.00;102189.22;5040766;28;20095;-93
2023/05/13 05:19:30;;;;;;;14.40;7.18;;;;;;;10.63;100.00;102232.59;5040243;28;20513;-92
2023/05/13 05:21:57;;;;;;;10.43;5.13;;;;;;;10.76;100.00;102229.78;5040109;28;20071;-91
2023/05/13 05:24:25;;;;;;;13.35;6.50;;;;;;;10.81;100.00;102244.56;5071909;28;20052;-91
2023/05/13 05:26:51;;;;;;;13.60;7.03;;;;;;;10.78;100.00;102217.53;5053122;28;20049;-92
2023/05/13 05:29:18;;;;;;;16.88;7.13;;;;;;;10.79;100.00;102208.81;5039138;28;20045;-93
2023/05/13 05:31:46;;;;;;;15.07;6.82;;;;;;;10.59;100.00;102214.34;5040552;28;20072;-93
2023/05/13 05:34:13;;;;;;;11.88;6.20;;;;;;;10.63;100.00;102224.72;5038302;28;20068;-94
2023/05/13 05:36:40;;;;;;;10.70;5.63;;;;;;;10.28;100.00;102151.88;5042127;28;20053;-94
2023/05/13 05:39:07;;;;;;;11.15;5.10;;;;;;;10.89;100.00;102205.16;5041112;28;20132;-92
2023/05/13 05:41:34;;;;;;;11.07;5.63;;;;;;;11.13;100.00;102239.72;5041508;28;20045;-93
2023/05/13 05:44:01;;;;;;;12.82;6.55;;;;;;;10.83;100.00;102200.84;5039732;28;20041;-91
2023/05/13 05:46:28;;;;;;;12.48;5.88;;;;;;;11.04;100.00;102221.53;5056338;28;20108;-93
2023/05/13 05:48:54;;;;;;;12.63;6.72;;;;;;;11.03;100.00;102218.06;5039472;28;20390;-91
2023/05/13 05:51:21;;;;;;;13.20;6.53;;;;;;;11.23;100.00;102228.22;5040056;28;20136;-91
2023/05/13 05:53:48;;;;;;;16.33;8.10;;;;;;;11.39;100.00;102252.41;5041195;28;20044;-93
2023/05/13 05:56:15;;;;;;;14.77;7.85;;;;;;;10.73;100.00;102138.16;5039450;28;20049;-92
2023/05/13 05:58:42;;;;;;;14.82;7.35;;;;;;;11.30;100.00;102236.84;5072280;28;20053;-93
2023/05/13 06:01:09;;;;;;;12.60;6.50;;;;;;;11.16;100.00;102189.88;5039668;28;20045;-90
2023/05/13 06:03:35;;;;;;;13.00;6.72;;;;;;;11.19;100.00;102210.78;5042779;28;20414;-90
2023/05/13 06:06:02;;;;;;;15.88;8.68;;;;;;;11.55;100.00;102260.88;5036803;28;20056;-94
2023/05/13 06:08:29;;;;;;;14.23;7.45;;;;;;;11.27;100.00;102223.78;5040807;28;20045;-94
2023/05/13 06:10:57;;;;;;;15.27;7.80;;;;;;;11.45;100.00;102254.91;5037120;28;20088;-92
2023/05/13 06:13:24;;;;;;;15.32;7.15;;;;;;;11.58;100.00;102255.59;5025828;28;20134;-94
2023/05/13 06:15:52;;;;;;;12.63;6.50;;;;;;;11.60;100.00;102232.81;5041885;28;20057;-93
2023/05/13 06:18:20;;;;;;;13.65;7.25;;;;;;;11.33;100.00;102190.47;5038103;28;20064;-91
2023/05/13 06:20:46;;;;;;;14.13;6.85;;;;;;;11.54;100.00;102219.78;5048363;28;20566;-90
2023/05/13 06:23:13;;;;;;;17.50;8.35;;;;;;;11.33;100.00;102211.44;5035001;28;20081;-90
2023/05/13 06:25:40;;;;;;;13.00;7.00;;;;;;;11.81;100.00;102249.94;5045430;28;20490;-90
2023/05/13 06:28:10;;;;;;;12.85;5.68;;;;;;;12.00;100.00;102249.59;5069186;28;20414;-89
2023/05/13 06:30:37;;;;;;;13.68;7.13;;;;;;;11.80;100.00;102200.09;5045064;28;20082;-91
2023/05/13 06:33:04;;;;;;;15.35;7.43;;;;;;;11.61;100.00;102203.06;5041904;28;20091;-90
2023/05/13 06:35:31;;;;;;;18.13;9.07;;;;;;;11.30;100.00;102201.00;5038309;28;20496;-91
2023/05/13 06:37:57;;;;;;;13.18;7.78;;;;;;;11.48;100.00;102177.97;5036360;28;20045;-89
2023/05/13 06:40:24;;;;;;;14.65;7.53;;;;;;;11.64;100.00;102179.38;5046051;28;20478;-90
2023/05/13 06:42:51;;;;;;;11.30;6.05;;;;;;;11.52;100.00;102150.75;5046493;28;20044;-90
2023/05/13 06:45:21;;;;;;;11.00;5.43;;;;;;;11.84;100.00;102180.75;5033297;28;20115;-90
2023/05/13 06:47:50;;;;;;;12.70;7.28;;;;;;;11.62;100.00;102175.94;5044633;28;20072;-91
2023/05/13 06:50:17;;;;;;;12.15;6.00;;;;;;;11.93;100.00;102215.63;5037409;28;20064;-89
2023/05/13 06:52:44;;;;;;;12.30;6.32;;;;;;;12.04;100.00;102193.50;5072497;28;20498;-92
2023/05/13 06:55:11;;;;;;;11.35;5.60;;;;;;;12.20;100.00;102201.94;5017364;28;20049;-91
2023/05/13 06:57:38;;;;;;;12.07;6.30;;;;;;;12.25;100.00;102192.19;5044451;28;20048;-91
2023/05/13 07:00:09;;;;;;;15.35;7.63;;;;;;;12.40;100.00;102199.75;5044936;28;20056;-92
2023/05/13 07:02:36;;;;;;;12.88;6.53;;;;;;;12.68;100.00;102236.78;5049553;28;20051;-93
2023/05/13 07:05:04;;;;;;;13.80;6.30;;;;;;;12.51;100.00;102196.88;5040843;28;20049;-89
2023/05/13 07:07:30;;;;;;;18.13;10.13;;;;;;;12.38;100.00;102203.28;5041138;28;20075;-92
2023/05/13 07:09:57;;;;;;;16.38;9.18;;;;;;;12.48;100.00;102191.69;5038394;28;20060;-92
2023/05/13 07:12:24;;;;;;;13.73;7.10;;;;;;;12.43;100.00;102194.44;5049273;28;20054;-92
2023/05/13 07:14:51;;;;;;;16.42;8.13;;;;;;;12.54;100.00;102207.34;5052185;28;20056;-91
2023/05/13 07:17:18;;;;;;;11.82;6.18;;;;;;;12.54;100.00;102217.84;5038043;28;20053;-90
2023/05/13 07:19:45;;;;;;;13.88;6.95;;;;;;;12.69;100.00;102191.19;5037879;28;20045;-91
2023/05/13 07:22:12;;;;;;;15.05;8.05;;;;;;;12.67;100.00;102215.81;5039135;28;20048;-91
2023/05/13 07:24:40;;;;;;;13.52;7.30;;;;;;;12.74;100.00;102196.38;5038743;28;20060;-91
2023/05/13 07:27:06;;;;;;;14.57;7.25;;;;;;;12.62;100.00;102201.91;5037846;28;20071;-89
2023/05/13 07:29:33;;;;;;;13.25;7.20;;;;;;;12.71;100.00;102225.34;5050383;28;20040;-90
2023/05/13 07:32:06;;;;;;;14.75;8.80;;;;;;;12.50;100.00;102169.75;5023908;28;20056;-90
2023/05/13 07:34:33;;;;;;;14.45;7.72;;;;;;;13.19;100.00;102197.91;5058362;28;20063;-89
2023/05/13 07:37:00;;;;;;;16.10;9.13;;;;;;;12.95;100.00;102168.69;5037415;28;20072;-90
2023/05/13 07:39:27;;;;;;;15.70;7.95;;;;;;;13.26;100.00;102197.72;5037564;28;20135;-89
2023/05/13 07:41:54;;;;;;;11.68;6.38;;;;;;;13.30;100.00;102183.59;5040239;28;20048;-89
2023/05/13 07:44:21;;;;;;;13.68;7.13;;;;;;;13.24;100.00;102191.66;5060610;28;20053;-90
2023/05/13 07:46:48;;;;;;;15.77;8.32;;;;;;;13.66;100.00;102182.69;5050657;28;20415;-90
2023/05/13 07:49:15;;;;;;;12.15;5.82;;;;;;;13.79;100.00;102194.59;5070011;28;20048;-90
2023/05/13 07:51:41;;;;;;;13.73;7.90;;;;;;;13.95;100.00;102199.41;5055022;28;20053;-91
2023/05/13 07:54:09;;;;;;;13.90;7.53;;;;;;;13.67;100.00;102195.78;5054400;28;20472;-91
2023/05/13 07:56:36;;;;;;;11.10;5.53;;;;;;;13.58;100.00;102175.00;5036958;28;20079;-90
2023/05/13 07:59:03;;;;;;;11.70;5.80;;;;;;;13.66;100.00;102132.66;5031042;28;20052;-89
2023/05/13 08:01:30;;;;;;;13.93;8.32;;;;;;;13.52;100.00;102180.41;5016928;28;20049;-90
2023/05/13 08:03:57;;;;;;;11.88;5.63;;;;;;;14.13;100.00;102203.28;5044433;28;20048;-91
2023/05/13 08:06:24;;;;;;;11.63;6.05;;;;;;;14.08;100.00;102153.41;5038905;28;20132;-91
2023/05/13 08:08:51;;;;;;;16.13;7.85;;;;;;;14.09;100.00;102165.66;5073740;28;20045;-90
2023/05/13 08:11:18;;;;;;;11.95;6.68;;;;;;;14.31;100.00;102138.69;5040460;28;20418;-90
2023/05/13 08:13:45;;;;;;;12.80;6.68;;;;;;;14.94;100.00;102161.28;5039610;28;20056;-89
2023/05/13 08:16:12;;;;;;;10.65;5.40;;;;;;;15.13;100.00;102150.94;5041347;28;20058;-89
2023/05/13 08:18:38;;;;;;;15.25;8.52;;;;;;;14.66;100.00;102165.72;5068446;28;20486;-88
2023/05/13 08:21:05;;;;;;;14.65;8.43;;;;;;;14.56;100.00;102175.66;5067639;28;20071;-88
2023/05/13 08:23:33;;;;;;;13.32;6.15;;;;;;;14.58;100.00;102153.63;5035686;28;20506;-90
2023/05/13 08:26:11;;;;;;;12.90;7.60;;;;;;;15.10;100.00;102173.94;5021266;28;20084;-89
2023/05/13 08:28:38;;;;;;;11.15;6.07;;;;;;;14.94;100.00;102174.47;5020141;28;20454;-91
2023/05/13 08:31:05;;;;;;;17.35;8.70;;;;;;;14.63;100.00;102150.88;5019916;28;20045;-91
2023/05/13 08:33:32;;;;;;;15.35;7.80;;;;;;;14.88;100.00;102143.00;5059275;28;20514;-91
2023/05/13 08:36:00;;;;;;;15.18;7.75;;;;;;;14.91;100.00;102161.38;5041951;28;20450;-89
2023/05/13 08:38:26;;;;;;;15.95;7.15;;;;;;;15.37;100.00;102153.69;5039217;28;20060;-90
2023/05/13 08:40:53;;;;;;;16.67;8.13;;;;;;;15.66;100.00;102202.78;5038839;28;20080;-90
2023/05/13 08:43:22;;;;;;;17.35;8.60;;;;;;;15.93;100.00;102184.25;5048559;28;20057;-92
2023/05/13 08:45:53;;;;;;;17.23;8.43;;;;;;;16.12;100.00;102171.22;5038534;28;20053;-91
2023/05/13 08:48:21;;;;;;;13.82;6.93;;;;;;;16.11;100.00;102166.84;5052672;28;20133;-90
2023/05/13 08:50:48;;;;;;;14.45;6.93;;;;;;;15.78;100.00;102134.66;5039516;28;20049;-91
2023/05/13 08:53:17;;;;;;;19.65;6.95;;;;;;;16.47;100.00;102193.63;5049756;28;20052;-91
2023/05/13 08:55:44;;;;;;;16.67;8.95;;;;;;;15.83;100.00;102119.47;5067921;28;20044;-90
2023/05/13 08:58:11;;;;;;;13.18;7.15;;;;;;;16.34;100.00;102150.09;5039765;28;20479;-91
2023/05/13 09:00:38;;;;;;;12.02;5.40;;;;;;;16.92;100.00;102196.31;5039401;28;20053;-89
2023/05/13 09:03:05;;;;;;;19.00;7.63;;;;;;;16.77;100.00;102143.09;5038750;28;20055;-91
2023/05/13 09:05:33;;;;;;;13.68;7.60;;;;;;;16.03;100.00;102153.94;5039689;28;20053;-91
2023/05/13 09:08:08;;;;;;;11.32;5.78;;;;;;;16.38;100.00;102172.84;5040642;28;20144;-91
2023/05/13 09:10:36;;;;;;;15.80;7.43;;;;;;;16.74;100.00;102185.53;5039309;28;20041;-91
2023/05/13 09:13:03;;;;;;;12.90;6.80;;;;;;;16.84;100.00;102141.09;5072647;28;20063;-89
2023/05/13 09:15:30;;;;;;;13.20;7.20;;;;;;;17.15;100.00;102179.47;5056875;28;20053;-90
2023/05/13 09:18:03;;;;;;;15.02;7.53;;;;;;;16.56;100.00;102176.53;5071443;28;20045;-91
2023/05/13 09:20:31;;;;;;;;;;;;;;;16.85;100.00;102166.59;5036102;28;20443;-90
2023/05/13 09:23:07;;;;;;;16.30;8.35;;;;;;;16.64;100.00;102173.59;5036776;28;20339;-92
2023/05/13 09:25:35;;;;;;;15.60;8.57;;;;;;;16.30;100.00;102145.84;5052178;28;20056;-90
2023/05/13 09:28:05;;;;;;;14.93;6.82;;;;;;;16.43;100.00;102162.06;5036402;28;20046;-89
2023/05/13 09:30:34;;;;;;;15.55;7.60;;;;;;;16.21;100.00;102155.00;5052341;28;20061;-91
2023/05/13 09:33:07;;;;;;;15.50;7.78;;;;;;;16.75;100.00;102137.00;5021520;28;20498;-89
2023/05/13 09:35:36;;;;;;;19.77;8.07;;;;;;;16.79;100.00;102165.03;5056254;28;20441;-91
2023/05/13 09:38:26;;;;;;;13.13;6.88;;;;;;;17.16;100.00;102155.59;5040349;28;20118;-92
2023/05/13 09:40:58;;;;;;;15.20;7.63;;;;;;;16.45;100.00;102095.03;5040404;28;20084;-89
2023/05/13 09:43:30;;;;;;;18.17;7.82;;;;;;;16.67;100.00;102154.97;5043950;28;20106;-90
2023/05/13 09:46:00;;;;;;;15.82;9.10;;;;;;;15.77;100.00;102109.16;5055948;28;20056;-89
2023/05/13 09:48:31;;;;;;;15.73;8.25;;;;;;;16.10;100.00;102104.34;5055429;28;20049;-90
2023/05/13 09:50:58;;;;;;;17.15;9.43;;;;;;;16.18;100.00;102135.75;5055575;28;20053;-90
2023/05/13 09:53:26;;;;;;;17.27;8.60;;;;;;;15.90;100.00;102111.28;5051624;28;20045;-88
2023/05/13 09:55:58;;;;;;;14.23;8.13;;;;;;;16.42;100.00;102131.28;5029879;28;20049;-89
2023/05/13 09:58:27;;;;;;;15.40;7.85;;;;;;;16.92;100.00;102143.41;5033014;28;20133;-89
2023/05/13 10:00:55;;;;;;;17.38;9.57;;;;;;;17.11;100.00;102162.00;5037849;28;20068;-89
2023/05/13 10:03:22;;;;;;;12.93;7.20;;;;;;;17.10;100.00;102161.13;5054475;28;20085;-90
2023/05/13 10:05:50;;;;;;;16.42;8.90;;;;;;;16.50;100.00;102123.91;5038213;28;20056;-90
2023/05/13 10:08:17;;;;;;;15.43;8.27;;;;;;;16.79;100.00;102159.75;5037747;28;20057;-90
2023/05/13 10:10:46;;;;;;;14.05;6.32;;;;;;;16.72;100.00;102123.91;5033674;28;20049;-89
2023/05/13 10:13:15;;;;;;;19.17;10.18;;;;;;;16.81;100.00;102139.38;5036423;28;20437;-89
2023/05/13 10:15:53;;;;;;;13.70;6.60;;;;;;;16.71;100.00;102145.97;5055994;28;20136;-90
2023/05/13 10:18:21;;;;;;;17.05;7.85;;;;;;;16.91;100.00;102136.38;5051141;28;20056;-90
2023/05/13 10:20:51;;;;;;;17.25;7.32;;;;;;;17.09;100.00;102167.38;5056979;28;20044;-89
2023/05/13 10:23:22;;;;;;;16.30;7.65;;;;;;;16.34;100.00;102152.72;5052683;28;20114;-90
2023/05/13 10:25:51;;;;;;;14.32;8.00;;;;;;;16.25;100.00;102143.38;5036724;28;20103;-89
2023/05/13 10:28:18;;;;;;;13.95;7.00;;;;;;;16.74;100.00;102142.34;5070901;28;20045;-93
2023/05/13 10:30:45;;;;;;;14.40;8.20;;;;;;;16.66;100.00;102153.22;5048878;28;20048;-92
2023/05/13 10:33:12;;;;;;;13.35;7.05;;;;;;;17.21;100.00;102160.66;5074448;28;20049;-91
2023/05/13 10:35:49;;;;;;;13.25;6.55;;;;;;;17.17;100.00;102156.44;5061196;28;20072;-91
2023/05/13 10:38:28;;;;;;;14.70;8.35;;;;;;;16.93;100.00;102147.75;5041666;28;20087;-93
2023/05/13 10:41:09;;;;;;;12.82;6.72;;;;;;;17.26;100.00;102154.28;5025848;28;20037;-92
2023/05/13 10:43:36;;;;;;;15.82;7.95;;;;;;;17.07;100.00;102125.09;5038752;28;20053;-90
2023/05/13 10:46:11;;;;;;;14.52;7.63;;;;;;;17.19;100.00;102152.81;5039496;28;20049;-91
2023/05/13 10:48:46;;;;;;;15.95;6.97;;;;;;;17.59;100.00;102139.63;5040243;28;20449;-91
2023/05/13 10:51:14;;;;;;;15.15;8.32;;;;;;;17.33;100.00;102111.66;5040624;28;20466;-92
2023/05/13 10:53:53;;;;;;;17.38;8.13;;;;;;;17.11;100.00;102154.94;5081022;28;20542;-91
2023/05/13 10:56:25;;;;;;;14.30;6.78;;;;;;;16.71;100.00;102140.69;5072165;28;20056;-92
2023/05/13 10:58:58;;;;;;;15.73;6.97;;;;;;;16.83;100.00;102153.44;5044800;28;20166;-92
2023/05/13 11:01:42;;;;;;;16.15;7.95;;;;;;;16.64;100.00;102137.44;5060468;28;20060;-92
2023/05/13 11:04:15;;;;;;;13.52;7.00;;;;;;;16.42;100.00;102112.78;5068139;28;20052;-93
2023/05/13 11:06:47;;;;;;;15.82;8.43;;;;;;;16.87;100.00;102146.22;5066142;28;20139;-93
2023/05/13 11:09:20;;;;;;;13.07;6.90;;;;;;;17.39;100.00;102137.88;5041484;28;20380;-91
2023/05/13 11:11:51;;;;;;;17.88;7.47;;;;;;;16.54;100.00;102030.34;5072815;28;20041;-93
2023/05/13 11:14:22;;;;;;;16.88;8.07;;;;;;;16.25;100.00;102082.59;5072093;28;20045;-93